sensor_id;sensor_type;location;lat;lon;timestamp;temperature;humidity
7388;DHT22;3735;50.136;11.062;2022-09-29T00:00:11;4.70;99.90
7388;DHT22;3735;50.136;11.062;2022-09-29T00:02:37;4.70;99.90
7388;DHT22;3735;50.136;11.062;2022-09-29T00:05:03;4.70;99.90
7388;DHT22;3735;50.136;11.062;2022-09-29T00:07:30;4.70;99.90
7388;DHT22;3735;50.136;11.062;2022-09-29T00:09:59;4.70;99.90
7388;DHT22;3735;50.136;11.062;2022-09-29T00:12:25;4.80;99.90
7388;DHT22;3735;50.136;11.062;2022-09-29T00:14:51;5.10;99.90
7388;DHT22;3735;50.136;11.062;2022-09-29T00:17:17;5.30;99.90
7388;DHT22;3735;50.136;11.062;2022-09-29T00:19:42;5.40;99.90
7388;DHT22;3735;50.136;11.062;2022-09-29T00:22:08;5.50;99.90
7388;DHT22;3735;50.136;11.062;2022-09-29T00:24:34;5.70;99.90
7388;DHT22;3735;50.136;11.062;2022-09-29T00:27:00;5.80;99.90
7388;DHT22;3735;50.136;11.062;2022-09-29T00:29:26;5.90;99.90
7388;DHT22;3735;50.136;11.062;2022-09-29T00:31:52;6.00;99.90
7388;DHT22;3735;50.136;11.062;2022-09-29T00:34:18;6.00;99.90
7388;DHT22;3735;50.136;11.062;2022-09-29T00:36:44;6.00;99.90
7388;DHT22;3735;50.136;11.062;2022-09-29T00:39:10;6.00;99.90
7388;DHT22;3735;50.136;11.062;2022-09-29T00:41:37;6.00;99.90
7388;DHT22;3735;50.136;11.062;2022-09-29T00:44:05;6.00;99.90
7388;DHT22;3735;50.136;11.062;2022-09-29T00:46:53;6.00;99.90
7388;DHT22;3735;50.136;11.062;2022-09-29T00:49:48;5.90;99.90
7388;DHT22;3735;50.136;11.062;2022-09-29T00:52:20;5.80;99.90
7388;DHT22;3735;50.136;11.062;2022-09-29T00:54:54;5.50;99.90
7388;DHT22;3735;50.136;11.062;2022-09-29T00:57:31;5.40;99.90
7388;DHT22;3735;50.136;11.062;2022-09-29T01:00:12;5.20;99.90
7388;DHT22;3735;50.136;11.062;2022-09-29T01:02:44;5.00;99.90
7388;DHT22;3735;50.136;11.062;2022-09-29T01:05:20;4.90;99.90
7388;DHT22;3735;50.136;11.062;2022-09-29T01:07:52;4.80;99.90
7388;DHT22;3735;50.136;11.062;2022-09-29T01:10:18;4.70;99.90
7388;DHT22;3735;50.136;11.062;2022-09-29T01:12:46;4.70;99.90
7388;DHT22;3735;50.136;11.062;2022-09-29T01:15:16;4.80;99.90
7388;DHT22;3735;50.136;11.062;2022-09-29T01:17:43;4.90;99.90
7388;DHT22;3735;50.136;11.062;2022-09-29T01:20:17;5.00;99.90
7388;DHT22;3735;50.136;11.062;2022-09-29T01:39:57;5.70;99.90
7388;DHT22;3735;50.136;11.062;2022-09-29T01:42:50;5.80;99.90
7388;DHT22;3735;50.136;11.062;2022-09-29T01:45:32;5.70;99.90
7388;DHT22;3735;50.136;11.062;2022-09-29T01:48:09;5.70;99.90
7388;DHT22;3735;50.136;11.062;2022-09-29T01:50:49;5.70;99.90
7388;DHT22;3735;50.136;11.062;2022-09-29T01:53:21;5.70;99.90
7388;DHT22;3735;50.136;11.062;2022-09-29T01:55:54;5.70;99.90
7388;DHT22;3735;50.136;11.062;2022-09-29T01:58:42;5.70;99.90
7388;DHT22;3735;50.136;11.062;2022-09-29T02:01:16;5.70;99.90
7388;DHT22;3735;50.136;11.062;2022-09-29T02:03:53;5.70;99.90
7388;DHT22;3735;50.136;11.062;2022-09-29T02:06:34;5.60;99.90
7388;DHT22;3735;50.136;11.062;2022-09-29T02:09:11;5.60;99.90
7388;DHT22;3735;50.136;11.062;2022-09-29T02:11:44;5.60;99.90
7388;DHT22;3735;50.136;11.062;2022-09-29T02:14:17;5.60;99.90
7388;DHT22;3735;50.136;11.062;2022-09-29T02:16:57;5.70;99.90
7388;DHT22;3735;50.136;11.062;2022-09-29T02:19:32;5.70;99.90
7388;DHT22;3735;50.136;11.062;2022-09-29T02:22:01;5.70;99.90
7388;DHT22;3735;50.136;11.062;2022-09-29T02:24:27;5.70;99.90
7388;DHT22;3735;50.136;11.062;2022-09-29T02:26:53;5.80;99.90
7388;DHT22;3735;50.136;11.062;2022-09-29T02:29:18;5.80;99.90
7388;DHT22;3735;50.136;11.062;2022-09-29T02:31:46;5.70;99.90
7388;DHT22;3735;50.136;11.062;2022-09-29T02:34:18;5.70;99.90
7388;DHT22;3735;50.136;11.062;2022-09-29T02:37:07;5.70;99.90
7388;DHT22;3735;50.136;11.062;2022-09-29T02:40:42;5.70;99.90
7388;DHT22;3735;50.136;11.062;2022-09-29T02:46:11;5.70;99.90
7388;DHT22;3735;50.136;11.062;2022-09-29T02:52:37;5.70;99.90
7388;DHT22;3735;50.136;11.062;2022-09-29T02:57:52;5.70;99.90
7388;DHT22;3735;50.136;11.062;2022-09-29T03:00:25;5.70;99.90
7388;DHT22;3735;50.136;11.062;2022-09-29T03:02:52;5.60;99.90
7388;DHT22;3735;50.136;11.062;2022-09-29T03:05:20;5.60;99.90
7388;DHT22;3735;50.136;11.062;2022-09-29T03:07:47;5.60;99.90
7388;DHT22;3735;50.136;11.062;2022-09-29T03:10:14;5.60;99.90
7388;DHT22;3735;50.136;11.062;2022-09-29T03:12:41;5.60;99.90
7388;DHT22;3735;50.136;11.062;2022-09-29T03:15:07;5.60;99.90
7388;DHT22;3735;50.136;11.062;2022-09-29T03:17:35;5.60;99.90
7388;DHT22;3735;50.136;11.062;2022-09-29T03:20:01;5.60;99.90
7388;DHT22;3735;50.136;11.062;2022-09-29T03:22:27;5.70;99.90
7388;DHT22;3735;50.136;11.062;2022-09-29T03:24:53;5.70;99.90
7388;DHT22;3735;50.136;11.062;2022-09-29T03:27:18;5.70;99.90
7388;DHT22;3735;50.136;11.062;2022-09-29T03:29:44;5.70;99.90
7388;DHT22;3735;50.136;11.062;2022-09-29T03:32:10;5.70;99.90
7388;DHT22;3735;50.136;11.062;2022-09-29T03:34:36;5.80;99.90
7388;DHT22;3735;50.136;11.062;2022-09-29T03:37:02;5.90;99.90
7388;DHT22;3735;50.136;11.062;2022-09-29T03:39:28;5.90;99.90
7388;DHT22;3735;50.136;11.062;2022-09-29T03:41:54;5.90;99.90
7388;DHT22;3735;50.136;11.062;2022-09-29T03:44:20;5.90;99.90
7388;DHT22;3735;50.136;11.062;2022-09-29T03:46:46;5.90;99.90
7388;DHT22;3735;50.136;11.062;2022-09-29T03:49:13;5.90;99.90
7388;DHT22;3735;50.136;11.062;2022-09-29T03:51:42;5.90;99.90
7388;DHT22;3735;50.136;11.062;2022-09-29T03:54:09;6.00;99.90
7388;DHT22;3735;50.136;11.062;2022-09-29T03:56:36;6.00;99.90
7388;DHT22;3735;50.136;11.062;2022-09-29T03:59:03;6.00;99.90
7388;DHT22;3735;50.136;11.062;2022-09-29T04:01:32;6.00;99.90
7388;DHT22;3735;50.136;11.062;2022-09-29T04:03:59;6.00;99.90
7388;DHT22;3735;50.136;11.062;2022-09-29T04:06:24;6.00;99.90
7388;DHT22;3735;50.136;11.062;2022-09-29T04:08:51;6.00;99.90
7388;DHT22;3735;50.136;11.062;2022-09-29T04:11:16;6.00;99.90
7388;DHT22;3735;50.136;11.062;2022-09-29T04:13:42;6.00;99.90
7388;DHT22;3735;50.136;11.062;2022-09-29T04:16:08;6.00;99.90
7388;DHT22;3735;50.136;11.062;2022-09-29T04:18:35;6.00;99.90
7388;DHT22;3735;50.136;11.062;2022-09-29T04:21:05;6.00;99.90
7388;DHT22;3735;50.136;11.062;2022-09-29T04:23:32;5.90;99.90
7388;DHT22;3735;50.136;11.062;2022-09-29T04:25:59;5.90;99.90
7388;DHT22;3735;50.136;11.062;2022-09-29T04:28:31;5.90;99.90
7388;DHT22;3735;50.136;11.062;2022-09-29T04:30:58;5.90;99.90
7388;DHT22;3735;50.136;11.062;2022-09-29T04:33:23;5.80;99.90
7388;DHT22;3735;50.136;11.062;2022-09-29T04:35:49;5.80;99.90
7388;DHT22;3735;50.136;11.062;2022-09-29T04:38:16;5.90;99.90
7388;DHT22;3735;50.136;11.062;2022-09-29T04:40:41;5.90;99.90
7388;DHT22;3735;50.136;11.062;2022-09-29T04:43:07;5.90;99.90
7388;DHT22;3735;50.136;11.062;2022-09-29T04:45:33;5.90;99.90
7388;DHT22;3735;50.136;11.062;2022-09-29T04:47:59;5.90;99.90
7388;DHT22;3735;50.136;11.062;2022-09-29T04:50:25;5.90;99.90
7388;DHT22;3735;50.136;11.062;2022-09-29T04:52:50;5.80;99.90
7388;DHT22;3735;50.136;11.062;2022-09-29T04:55:16;5.80;99.90
7388;DHT22;3735;50.136;11.062;2022-09-29T04:57:42;5.80;99.90
7388;DHT22;3735;50.136;11.062;2022-09-29T05:00:09;5.80;99.90
7388;DHT22;3735;50.136;11.062;2022-09-29T05:02:36;5.70;99.90
7388;DHT22;3735;50.136;11.062;2022-09-29T05:05:03;5.70;99.90
7388;DHT22;3735;50.136;11.062;2022-09-29T05:07:32;5.60;99.90
7388;DHT22;3735;50.136;11.062;2022-09-29T05:09:59;5.60;99.90
7388;DHT22;3735;50.136;11.062;2022-09-29T05:12:24;5.60;99.90
7388;DHT22;3735;50.136;11.062;2022-09-29T05:14:50;5.60;99.90
7388;DHT22;3735;50.136;11.062;2022-09-29T05:17:16;5.60;99.90
7388;DHT22;3735;50.136;11.062;2022-09-29T05:19:41;5.60;99.90
7388;DHT22;3735;50.136;11.062;2022-09-29T05:22:07;5.70;99.90
7388;DHT22;3735;50.136;11.062;2022-09-29T05:24:33;5.70;99.90
7388;DHT22;3735;50.136;11.062;2022-09-29T05:26:59;5.70;99.90
7388;DHT22;3735;50.136;11.062;2022-09-29T05:29:24;5.70;99.90
7388;DHT22;3735;50.136;11.062;2022-09-29T05:31:50;5.70;99.90
7388;DHT22;3735;50.136;11.062;2022-09-29T05:34:16;5.70;99.90
7388;DHT22;3735;50.136;11.062;2022-09-29T05:36:43;5.70;99.90
7388;DHT22;3735;50.136;11.062;2022-09-29T05:39:09;5.70;99.90
7388;DHT22;3735;50.136;11.062;2022-09-29T05:41:35;5.70;99.90
7388;DHT22;3735;50.136;11.062;2022-09-29T05:44:01;5.80;99.90
7388;DHT22;3735;50.136;11.062;2022-09-29T05:46:28;6.00;99.90
7388;DHT22;3735;50.136;11.062;2022-09-29T05:48:54;6.00;99.90
7388;DHT22;3735;50.136;11.062;2022-09-29T05:51:23;6.10;99.90
7388;DHT22;3735;50.136;11.062;2022-09-29T05:53:52;6.20;99.90
7388;DHT22;3735;50.136;11.062;2022-09-29T05:56:21;6.30;99.90
7388;DHT22;3735;50.136;11.062;2022-09-29T05:58:49;6.40;99.90
7388;DHT22;3735;50.136;11.062;2022-09-29T06:01:23;6.50;99.90
7388;DHT22;3735;50.136;11.062;2022-09-29T06:03:52;6.60;99.90
7388;DHT22;3735;50.136;11.062;2022-09-29T06:06:22;6.70;99.90
7388;DHT22;3735;50.136;11.062;2022-09-29T06:08:49;6.80;99.90
7388;DHT22;3735;50.136;11.062;2022-09-29T06:11:21;6.90;99.90
7388;DHT22;3735;50.136;11.062;2022-09-29T06:13:50;7.00;99.90
7388;DHT22;3735;50.136;11.062;2022-09-29T06:16:19;7.10;99.90
7388;DHT22;3735;50.136;11.062;2022-09-29T06:18:47;7.10;99.90
7388;DHT22;3735;50.136;11.062;2022-09-29T06:21:17;7.20;99.90
7388;DHT22;3735;50.136;11.062;2022-09-29T06:23:44;7.20;99.90
7388;DHT22;3735;50.136;11.062;2022-09-29T06:26:12;7.30;99.90
7388;DHT22;3735;50.136;11.062;2022-09-29T06:28:40;7.50;99.90
7388;DHT22;3735;50.136;11.062;2022-09-29T06:31:09;7.60;99.90
7388;DHT22;3735;50.136;11.062;2022-09-29T06:33:36;7.70;99.90
7388;DHT22;3735;50.136;11.062;2022-09-29T06:39:25;7.90;99.90
7388;DHT22;3735;50.136;11.062;2022-09-29T06:41:51;8.00;99.90
7388;DHT22;3735;50.136;11.062;2022-09-29T06:44:20;8.10;99.90
7388;DHT22;3735;50.136;11.062;2022-09-29T06:46:49;8.20;99.90
7388;DHT22;3735;50.136;11.062;2022-09-29T06:49:16;8.30;99.90
7388;DHT22;3735;50.136;11.062;2022-09-29T06:51:43;8.30;99.90
7388;DHT22;3735;50.136;11.062;2022-09-29T06:54:14;8.40;99.90
7388;DHT22;3735;50.136;11.062;2022-09-29T06:56:50;8.60;99.90
7388;DHT22;3735;50.136;11.062;2022-09-29T06:59:17;8.70;99.90
7388;DHT22;3735;50.136;11.062;2022-09-29T07:01:43;8.80;99.90
7388;DHT22;3735;50.136;11.062;2022-09-29T07:04:13;9.10;99.90
7388;DHT22;3735;50.136;11.062;2022-09-29T07:06:39;9.30;99.90
7388;DHT22;3735;50.136;11.062;2022-09-29T07:09:05;9.50;99.90
7388;DHT22;3735;50.136;11.062;2022-09-29T07:11:31;9.70;99.90
7388;DHT22;3735;50.136;11.062;2022-09-29T07:13:56;9.90;99.90
7388;DHT22;3735;50.136;11.062;2022-09-29T07:16:23;10.00;99.90
7388;DHT22;3735;50.136;11.062;2022-09-29T07:18:49;10.10;99.90
7388;DHT22;3735;50.136;11.062;2022-09-29T07:21:15;10.40;99.90
7388;DHT22;3735;50.136;11.062;2022-09-29T07:23:42;10.80;99.90
7388;DHT22;3735;50.136;11.062;2022-09-29T07:26:09;11.20;99.90
7388;DHT22;3735;50.136;11.062;2022-09-29T07:28:35;11.50;99.90
7388;DHT22;3735;50.136;11.062;2022-09-29T07:31:08;11.80;99.90
7388;DHT22;3735;50.136;11.062;2022-09-29T07:33:36;12.30;99.90
7388;DHT22;3735;50.136;11.062;2022-09-29T07:36:02;12.90;99.90
7388;DHT22;3735;50.136;11.062;2022-09-29T07:38:29;13.30;99.90
7388;DHT22;3735;50.136;11.062;2022-09-29T07:41:07;13.80;99.90
7388;DHT22;3735;50.136;11.062;2022-09-29T07:43:35;15.60;99.90
7388;DHT22;3735;50.136;11.062;2022-09-29T07:46:01;17.40;99.90
7388;DHT22;3735;50.136;11.062;2022-09-29T07:48:28;18.80;99.90
7388;DHT22;3735;50.136;11.062;2022-09-29T07:51:15;19.40;99.90
7388;DHT22;3735;50.136;11.062;2022-09-29T07:53:44;19.70;99.90
7388;DHT22;3735;50.136;11.062;2022-09-29T07:56:16;19.40;99.90
7388;DHT22;3735;50.136;11.062;2022-09-29T07:58:47;20.00;99.90
7388;DHT22;3735;50.136;11.062;2022-09-29T08:01:15;21.10;99.90
7388;DHT22;3735;50.136;11.062;2022-09-29T08:03:47;22.40;92.50
7388;DHT22;3735;50.136;11.062;2022-09-29T08:06:19;23.60;79.70
7388;DHT22;3735;50.136;11.062;2022-09-29T08:08:46;22.90;77.90
7388;DHT22;3735;50.136;11.062;2022-09-29T08:11:16;20.90;83.30
7388;DHT22;3735;50.136;11.062;2022-09-29T08:13:45;19.00;99.90
7388;DHT22;3735;50.136;11.062;2022-09-29T08:16:13;17.80;99.90
7388;DHT22;3735;50.136;11.062;2022-09-29T08:18:40;18.60;99.90
7388;DHT22;3735;50.136;11.062;2022-09-29T08:21:07;19.10;99.90
7388;DHT22;3735;50.136;11.062;2022-09-29T08:23:36;19.40;99.90
7388;DHT22;3735;50.136;11.062;2022-09-29T08:26:12;19.70;99.90
7388;DHT22;3735;50.136;11.062;2022-09-29T08:28:41;20.90;95.60
7388;DHT22;3735;50.136;11.062;2022-09-29T08:31:15;21.40;84.70
7388;DHT22;3735;50.136;11.062;2022-09-29T08:33:48;21.20;96.80
7388;DHT22;3735;50.136;11.062;2022-09-29T08:36:19;22.00;71.90
7388;DHT22;3735;50.136;11.062;2022-09-29T08:38:47;22.00;67.50
7388;DHT22;3735;50.136;11.062;2022-09-29T08:52:56;17.40;99.90
7388;DHT22;3735;50.136;11.062;2022-09-29T08:55:40;17.00;99.90
7388;DHT22;3735;50.136;11.062;2022-09-29T08:58:12;16.50;99.90
7388;DHT22;3735;50.136;11.062;2022-09-29T09:01:11;18.00;99.90
7388;DHT22;3735;50.136;11.062;2022-09-29T09:10:24;18.60;99.90
7388;DHT22;3735;50.136;11.062;2022-09-29T09:16:03;18.10;99.90
7388;DHT22;3735;50.136;11.062;2022-09-29T09:21:43;16.90;99.90
7388;DHT22;3735;50.136;11.062;2022-09-29T09:24:30;16.40;99.90
7388;DHT22;3735;50.136;11.062;2022-09-29T09:27:03;15.90;99.90
7388;DHT22;3735;50.136;11.062;2022-09-29T09:29:31;17.50;99.90
7388;DHT22;3735;50.136;11.062;2022-09-29T09:32:00;19.80;99.90
7388;DHT22;3735;50.136;11.062;2022-09-29T09:34:58;21.60;96.30
7388;DHT22;3735;50.136;11.062;2022-09-29T09:37:34;23.00;83.90
7388;DHT22;3735;50.136;11.062;2022-09-29T09:40:18;23.90;73.10
7388;DHT22;3735;50.136;11.062;2022-09-29T09:43:04;24.80;67.30
7388;DHT22;3735;50.136;11.062;2022-09-29T09:46:01;25.60;99.90
7388;DHT22;3735;50.136;11.062;2022-09-29T09:54:43;25.90;99.90
7388;DHT22;3735;50.136;11.062;2022-09-29T10:00:08;28.10;99.90
7388;DHT22;3735;50.136;11.062;2022-09-29T10:02:47;29.20;99.90
7388;DHT22;3735;50.136;11.062;2022-09-29T10:05:23;30.40;99.90
7388;DHT22;3735;50.136;11.062;2022-09-29T10:07:54;30.20;99.90
7388;DHT22;3735;50.136;11.062;2022-09-29T10:10:26;29.90;99.90
7388;DHT22;3735;50.136;11.062;2022-09-29T10:13:09;30.00;99.90
7388;DHT22;3735;50.136;11.062;2022-09-29T10:15:49;29.10;99.90
7388;DHT22;3735;50.136;11.062;2022-09-29T10:18:39;28.40;99.90
7388;DHT22;3735;50.136;11.062;2022-09-29T10:21:39;28.60;99.90
7388;DHT22;3735;50.136;11.062;2022-09-29T10:26:54;28.30;99.90
7388;DHT22;3735;50.136;11.062;2022-09-29T10:29:41;27.80;99.90
7388;DHT22;3735;50.136;11.062;2022-09-29T10:32:31;26.90;99.90
7388;DHT22;3735;50.136;11.062;2022-09-29T10:38:17;23.50;99.90
7388;DHT22;3735;50.136;11.062;2022-09-29T10:46:03;21.30;99.90
7388;DHT22;3735;50.136;11.062;2022-09-29T10:48:30;21.50;99.90
7388;DHT22;3735;50.136;11.062;2022-09-29T10:50:59;20.90;99.90
7388;DHT22;3735;50.136;11.062;2022-09-29T10:53:36;20.30;99.90
7388;DHT22;3735;50.136;11.062;2022-09-29T10:56:20;19.50;99.90
7388;DHT22;3735;50.136;11.062;2022-09-29T10:59:00;18.80;99.90
7388;DHT22;3735;50.136;11.062;2022-09-29T11:01:30;19.00;99.90
7388;DHT22;3735;50.136;11.062;2022-09-29T11:04:02;20.30;99.90
7388;DHT22;3735;50.136;11.062;2022-09-29T11:06:33;22.50;99.90
7388;DHT22;3735;50.136;11.062;2022-09-29T11:09:21;23.70;99.90
7388;DHT22;3735;50.136;11.062;2022-09-29T11:11:53;24.40;99.90
7388;DHT22;3735;50.136;11.062;2022-09-29T11:20:01;25.70;99.90
7388;DHT22;3735;50.136;11.062;2022-09-29T11:25:50;27.30;99.90
7388;DHT22;3735;50.136;11.062;2022-09-29T11:28:46;27.00;99.90
7388;DHT22;3735;50.136;11.062;2022-09-29T11:31:29;26.60;99.90
7388;DHT22;3735;50.136;11.062;2022-09-29T11:34:20;27.00;99.90
7388;DHT22;3735;50.136;11.062;2022-09-29T11:49:50;27.60;99.90
7388;DHT22;3735;50.136;11.062;2022-09-29T11:58:32;30.30;95.30
7388;DHT22;3735;50.136;11.062;2022-09-29T12:16:20;27.00;98.70
7388;DHT22;3735;50.136;11.062;2022-09-29T12:18:56;27.10;96.70
7388;DHT22;3735;50.136;11.062;2022-09-29T12:27:15;26.40;95.20
7388;DHT22;3735;50.136;11.062;2022-09-29T12:30:17;25.50;97.30
7388;DHT22;3735;50.136;11.062;2022-09-29T12:32:53;24.80;99.40
7388;DHT22;3735;50.136;11.062;2022-09-29T12:35:33;24.30;99.90
7388;DHT22;3735;50.136;11.062;2022-09-29T12:40:48;24.50;99.90
7388;DHT22;3735;50.136;11.062;2022-09-29T12:43:21;23.80;99.90
7388;DHT22;3735;50.136;11.062;2022-09-29T12:46:30;23.00;99.90
7388;DHT22;3735;50.136;11.062;2022-09-29T12:49:21;22.20;99.90
7388;DHT22;3735;50.136;11.062;2022-09-29T12:51:52;21.70;99.90
7388;DHT22;3735;50.136;11.062;2022-09-29T12:54:24;21.10;99.90
7388;DHT22;3735;50.136;11.062;2022-09-29T12:57:11;20.50;99.90
7388;DHT22;3735;50.136;11.062;2022-09-29T12:59:42;20.10;99.90
7388;DHT22;3735;50.136;11.062;2022-09-29T13:17:25;18.50;99.90
7388;DHT22;3735;50.136;11.062;2022-09-29T13:20:47;18.30;99.90
7388;DHT22;3735;50.136;11.062;2022-09-29T13:29:04;18.10;99.90
7388;DHT22;3735;50.136;11.062;2022-09-29T13:31:38;17.90;99.90
7388;DHT22;3735;50.136;11.062;2022-09-29T13:34:06;17.60;99.90
7388;DHT22;3735;50.136;11.062;2022-09-29T13:36:44;17.40;99.90
7388;DHT22;3735;50.136;11.062;2022-09-29T13:39:22;17.20;99.90
7388;DHT22;3735;50.136;11.062;2022-09-29T13:41:54;17.00;99.90
7388;DHT22;3735;50.136;11.062;2022-09-29T13:44:27;17.60;99.90
7388;DHT22;3735;50.136;11.062;2022-09-29T13:46:54;18.20;99.90
7388;DHT22;3735;50.136;11.062;2022-09-29T13:54:46;18.50;99.90
7388;DHT22;3735;50.136;11.062;2022-09-29T13:59:39;17.80;99.90
7388;DHT22;3735;50.136;11.062;2022-09-29T14:02:33;17.40;99.90
7388;DHT22;3735;50.136;11.062;2022-09-29T14:05:27;17.10;99.90
7388;DHT22;3735;50.136;11.062;2022-09-29T14:13:17;16.10;99.90
7388;DHT22;3735;50.136;11.062;2022-09-29T14:43:47;14.60;99.90
7388;DHT22;3735;50.136;11.062;2022-09-29T15:01:09;14.00;99.90
7388;DHT22;3735;50.136;11.062;2022-09-29T15:03:51;13.90;99.90
7388;DHT22;3735;50.136;11.062;2022-09-29T15:06:20;13.80;99.90
7388;DHT22;3735;50.136;11.062;2022-09-29T15:11:35;13.60;99.90
7388;DHT22;3735;50.136;11.062;2022-09-29T15:26:10;13.50;99.90
7388;DHT22;3735;50.136;11.062;2022-09-29T15:28:39;13.30;99.90
7388;DHT22;3735;50.136;11.062;2022-09-29T15:31:10;13.20;99.90
7388;DHT22;3735;50.136;11.062;2022-09-29T15:33:41;12.90;99.90
7388;DHT22;3735;50.136;11.062;2022-09-29T15:38:45;12.40;99.90
7388;DHT22;3735;50.136;11.062;2022-09-29T15:41:17;12.20;99.90
7388;DHT22;3735;50.136;11.062;2022-09-29T15:44:14;12.00;99.90
7388;DHT22;3735;50.136;11.062;2022-09-29T15:46:48;11.80;99.90
7388;DHT22;3735;50.136;11.062;2022-09-29T15:49:19;11.70;99.90
7388;DHT22;3735;50.136;11.062;2022-09-29T15:54:35;11.30;99.90
7388;DHT22;3735;50.136;11.062;2022-09-29T15:57:04;11.20;99.90
7388;DHT22;3735;50.136;11.062;2022-09-29T16:06:13;10.90;99.90
7388;DHT22;3735;50.136;11.062;2022-09-29T16:08:50;10.80;99.90
7388;DHT22;3735;50.136;11.062;2022-09-29T16:11:40;10.70;99.90
7388;DHT22;3735;50.136;11.062;2022-09-29T16:14:21;10.50;99.90
7388;DHT22;3735;50.136;11.062;2022-09-29T16:16:51;10.50;99.90
7388;DHT22;3735;50.136;11.062;2022-09-29T16:19:27;10.50;99.90
7388;DHT22;3735;50.136;11.062;2022-09-29T16:22:03;10.50;99.90
7388;DHT22;3735;50.136;11.062;2022-09-29T16:24:34;10.50;99.90
7388;DHT22;3735;50.136;11.062;2022-09-29T16:30:31;10.30;99.90
7388;DHT22;3735;50.136;11.062;2022-09-29T16:33:15;10.20;99.90
7388;DHT22;3735;50.136;11.062;2022-09-29T16:38:43;10.10;99.90
7388;DHT22;3735;50.136;11.062;2022-09-29T16:41:32;10.10;99.90
7388;DHT22;3735;50.136;11.062;2022-09-29T16:52:00;10.00;99.90
7388;DHT22;3735;50.136;11.062;2022-09-29T16:54:29;9.90;99.90
7388;DHT22;3735;50.136;11.062;2022-09-29T16:57:21;9.90;99.90
7388;DHT22;3735;50.136;11.062;2022-09-29T16:59:55;9.90;99.90
7388;DHT22;3735;50.136;11.062;2022-09-29T17:02:24;9.80;99.90
7388;DHT22;3735;50.136;11.062;2022-09-29T17:07:18;9.80;99.90
7388;DHT22;3735;50.136;11.062;2022-09-29T17:09:49;9.90;99.90
7388;DHT22;3735;50.136;11.062;2022-09-29T17:12:17;9.90;99.90
7388;DHT22;3735;50.136;11.062;2022-09-29T17:14:43;9.90;99.90
7388;DHT22;3735;50.136;11.062;2022-09-29T17:17:22;9.90;99.90
7388;DHT22;3735;50.136;11.062;2022-09-29T17:19:51;9.90;99.90
7388;DHT22;3735;50.136;11.062;2022-09-29T17:22:30;9.90;99.90
7388;DHT22;3735;50.136;11.062;2022-09-29T17:25:01;9.90;99.90
7388;DHT22;3735;50.136;11.062;2022-09-29T17:27:28;9.90;99.90
7388;DHT22;3735;50.136;11.062;2022-09-29T17:30:18;9.90;99.90
7388;DHT22;3735;50.136;11.062;2022-09-29T17:32:48;10.00;99.90
7388;DHT22;3735;50.136;11.062;2022-09-29T17:35:17;10.00;99.90
7388;DHT22;3735;50.136;11.062;2022-09-29T17:37:46;10.00;99.90
7388;DHT22;3735;50.136;11.062;2022-09-29T17:42:49;10.00;99.90
7388;DHT22;3735;50.136;11.062;2022-09-29T17:45:17;10.00;99.90
7388;DHT22;3735;50.136;11.062;2022-09-29T17:47:45;10.00;99.90
7388;DHT22;3735;50.136;11.062;2022-09-29T17:50:32;9.90;99.90
7388;DHT22;3735;50.136;11.062;2022-09-29T17:53:03;9.90;99.90
7388;DHT22;3735;50.136;11.062;2022-09-29T17:55:30;9.90;99.90
7388;DHT22;3735;50.136;11.062;2022-09-29T17:57:57;9.80;99.90
7388;DHT22;3735;50.136;11.062;2022-09-29T18:00:24;9.80;99.90
7388;DHT22;3735;50.136;11.062;2022-09-29T18:02:51;9.80;99.90
7388;DHT22;3735;50.136;11.062;2022-09-29T18:05:22;9.80;99.90
7388;DHT22;3735;50.136;11.062;2022-09-29T18:07:51;9.80;99.90
7388;DHT22;3735;50.136;11.062;2022-09-29T18:10:43;9.80;99.90
7388;DHT22;3735;50.136;11.062;2022-09-29T18:13:10;9.80;99.90
7388;DHT22;3735;50.136;11.062;2022-09-29T18:15:36;9.80;99.90
7388;DHT22;3735;50.136;11.062;2022-09-29T18:18:04;9.80;99.90
7388;DHT22;3735;50.136;11.062;2022-09-29T18:20:33;9.80;99.90
7388;DHT22;3735;50.136;11.062;2022-09-29T18:23:04;9.70;99.90
7388;DHT22;3735;50.136;11.062;2022-09-29T18:25:31;9.70;99.90
7388;DHT22;3735;50.136;11.062;2022-09-29T18:27:58;9.60;99.90
7388;DHT22;3735;50.136;11.062;2022-09-29T18:30:30;9.60;99.90
7388;DHT22;3735;50.136;11.062;2022-09-29T18:33:01;9.50;99.90
7388;DHT22;3735;50.136;11.062;2022-09-29T18:35:34;9.50;99.90
7388;DHT22;3735;50.136;11.062;2022-09-29T18:38:01;9.50;99.90
7388;DHT22;3735;50.136;11.062;2022-09-29T18:40:29;9.50;99.90
7388;DHT22;3735;50.136;11.062;2022-09-29T18:42:55;9.50;99.90
7388;DHT22;3735;50.136;11.062;2022-09-29T18:45:29;9.50;99.90
7388;DHT22;3735;50.136;11.062;2022-09-29T18:48:00;9.50;99.90
7388;DHT22;3735;50.136;11.062;2022-09-29T18:50:30;9.40;99.90
7388;DHT22;3735;50.136;11.062;2022-09-29T18:53:10;9.40;99.90
7388;DHT22;3735;50.136;11.062;2022-09-29T18:55:38;9.40;99.90
7388;DHT22;3735;50.136;11.062;2022-09-29T18:58:08;9.40;99.90
7388;DHT22;3735;50.136;11.062;2022-09-29T19:00:45;9.40;99.90
7388;DHT22;3735;50.136;11.062;2022-09-29T19:03:12;9.30;99.90
7388;DHT22;3735;50.136;11.062;2022-09-29T19:05:40;9.30;99.90
7388;DHT22;3735;50.136;11.062;2022-09-29T19:08:09;9.30;99.90
7388;DHT22;3735;50.136;11.062;2022-09-29T19:10:37;9.30;99.90
7388;DHT22;3735;50.136;11.062;2022-09-29T19:13:08;9.20;99.90
7388;DHT22;3735;50.136;11.062;2022-09-29T19:15:42;9.30;99.90
7388;DHT22;3735;50.136;11.062;2022-09-29T19:18:14;9.30;99.90
7388;DHT22;3735;50.136;11.062;2022-09-29T19:20:47;9.20;99.90
7388;DHT22;3735;50.136;11.062;2022-09-29T19:23:17;9.20;99.90
7388;DHT22;3735;50.136;11.062;2022-09-29T19:25:47;9.20;99.90
7388;DHT22;3735;50.136;11.062;2022-09-29T19:28:15;9.20;99.90
7388;DHT22;3735;50.136;11.062;2022-09-29T19:30:42;9.10;99.90
7388;DHT22;3735;50.136;11.062;2022-09-29T19:33:12;9.20;99.90
7388;DHT22;3735;50.136;11.062;2022-09-29T19:35:51;9.10;99.90
7388;DHT22;3735;50.136;11.062;2022-09-29T19:38:19;9.00;99.90
7388;DHT22;3735;50.136;11.062;2022-09-29T19:40:46;9.00;99.90
7388;DHT22;3735;50.136;11.062;2022-09-29T19:43:13;9.00;99.90
7388;DHT22;3735;50.136;11.062;2022-09-29T19:45:40;9.10;99.90
7388;DHT22;3735;50.136;11.062;2022-09-29T19:48:09;9.10;99.90
7388;DHT22;3735;50.136;11.062;2022-09-29T19:50:38;9.00;99.90
7388;DHT22;3735;50.136;11.062;2022-09-29T19:53:22;9.00;99.90
7388;DHT22;3735;50.136;11.062;2022-09-29T19:55:48;9.00;99.90
7388;DHT22;3735;50.136;11.062;2022-09-29T19:58:14;9.10;99.90
7388;DHT22;3735;50.136;11.062;2022-09-29T20:00:39;9.10;99.90
7388;DHT22;3735;50.136;11.062;2022-09-29T20:03:07;9.10;99.90
7388;DHT22;3735;50.136;11.062;2022-09-29T20:05:33;9.00;99.90
7388;DHT22;3735;50.136;11.062;2022-09-29T20:08:00;9.00;99.90
7388;DHT22;3735;50.136;11.062;2022-09-29T20:10:27;9.00;99.90
7388;DHT22;3735;50.136;11.062;2022-09-29T20:12:54;9.00;99.90
7388;DHT22;3735;50.136;11.062;2022-09-29T20:15:21;9.00;99.90
7388;DHT22;3735;50.136;11.062;2022-09-29T20:17:47;9.00;99.90
7388;DHT22;3735;50.136;11.062;2022-09-29T20:20:15;9.00;99.90
7388;DHT22;3735;50.136;11.062;2022-09-29T20:22:41;9.00;99.90
7388;DHT22;3735;50.136;11.062;2022-09-29T20:25:08;8.90;99.90
7388;DHT22;3735;50.136;11.062;2022-09-29T20:27:35;8.80;99.90
7388;DHT22;3735;50.136;11.062;2022-09-29T20:30:02;8.80;99.90
7388;DHT22;3735;50.136;11.062;2022-09-29T20:32:29;8.80;99.90